Home > Products > Valid Products > MTR

000
SAUS43 KDDC 312257
MTRP28
METAR KP28 312256Z AUTO 06007KT 09/M07 A3042 RMK AO1 SLP309
T00941067





000
SAUS43 KDDC 312158
MTRP28
METAR KP28 312156Z AUTO 11/M07 A3042 RMK AO1 SLP304 T01061072





000
SAUS43 KDDC 312057
MTRP28
METAR KP28 312056Z AUTO 04010KT 11/M07 A3041 RMK AO1 SLP303
T01111072 58023





000
SAUS43 KDDC 311957
MTRP28
METAR KP28 311956Z AUTO 03009KT 11/M06 A3044 RMK AO1 SLP310
T01111061





000
SAUS43 KDDC 311857
MTRP28
METAR KP28 311856Z AUTO 03012KT 10/M06 A3046 RMK AO1 SLP319
T01001056





000
SAUS43 KDDC 311757
MTRP28
METAR KP28 311756Z AUTO 03010G20KT 09/M03 A3049 RMK AO1 SLP326
T00941033 10094 20028 58007





000
SAUS43 KDDC 311657
MTRP28
METAR KP28 311656Z AUTO 02017G23KT 07/M03 A3050 RMK AO1 SLP330
T00721033





000
SAUS43 KDDC 311657
MTRP28
METAR KP28 311656Z AUTO 02017G23KT 07/M03 A3050 RMK AO1 SLP330
T00721033





000
SAUS43 KDDC 311557
MTRP28
METAR KP28 311556Z AUTO 02011KT 07/M01 A3050 RMK AO1 SLP334
T00671006





000
SAUS43 KDDC 311458
MTRP28
METAR KP28 311456Z AUTO 02012G23KT 04/M01 A3051 RMK AO1 PK WND
02028/1434 SLP336 T00391006 53026





000
SAUS43 KDDC 311357
MTRP28
METAR KP28 311356Z AUTO 01015G21KT 03/01 A3048 RMK AO1 SLP325
T00330006





000
SAUS43 KDDC 311257
MTRP28
METAR KP28 311256Z AUTO 01010KT 03/01 A3045 RMK AO1 SLP316 T00280011





000
SAUS43 KDDC 311157
MTRP28
METAR KP28 311156Z AUTO 01013KT 03/02 A3043 RMK AO1 SLP307 T00330017
10111 20033 51014





000
SAUS43 KDDC 311058
MTRP28
METAR KP28 311056Z AUTO 36007KT 03/02 A3042 RMK AO1 SLP302 T00330017





000
SAUS43 KDDC 310957
MTRP28
METAR KP28 310956Z AUTO 36008KT 04/02 A3040 RMK AO1 SLP293 T00440017





000
SAUS43 KDDC 310858
MTRP28
METAR KP28 310856Z AUTO 01011KT 06/02 A3038 RMK AO1 SLP286 T00610022
53026





000
SAUS43 KDDC 310758
MTRP28
METAR KP28 310756Z AUTO 02017G25KT 08/02 A3035 RMK AO1 PK WND
01026/0724 SLP273 T00830022





000
SAUS43 KDDC 310657
MTRP28
METAR KP28 310656Z AUTO 01012KT 10/02 A3032 RMK AO1 SLP263 T01000022





000
SAUS43 KDDC 310557
MTRP28
METAR KP28 310556Z AUTO 02015G21KT 11/02 A3030 RMK AO1 SLP256
T01110017 10167 20089 402330028 51015





000
SAUS43 KDDC 310458
MTRP28
METAR KP28 310456Z AUTO 03013G20KT 12/01 A3029 RMK AO1 SLP252
T01170011





000
SAUS43 KDDC 310458
MTRP28
METAR KP28 310456Z AUTO 03013G20KT 12/01 A3029 RMK AO1 SLP252
T01170011





000
SAUS43 KDDC 310357
MTRP28
METAR KP28 310356Z AUTO 36007KT 09/02 A3028 RMK AO1 SLP251 T00890017





000
SAUS43 KDDC 310357
MTRP28
METAR KP28 310356Z AUTO 36007KT 09/02 A3028 RMK AO1 SLP251 T00890017





000
SAUS43 KDDC 310258
MTRP28
METAR KP28 310256Z AUTO 36007KT 11/02 A3026 RMK AO1 SLP244 T01110017
51019





000
SAUS43 KDDC 310157
MTRP28
METAR KP28 310156Z AUTO 35008KT 12/01 A3024 RMK AO1 SLP240 T01170011





000
SAUS43 KDDC 310058
MTRP28
METAR KP28 310056Z AUTO 02006KT 13/01 A3022 RMK AO1 SLP235 T01280006





000
SAUS43 KDDC 302358
MTRP28
METAR KP28 302356Z AUTO 36005KT 17/01 A3020 RMK AO1 SLP226 T01670006
10233 20167 53016





000
SAUS43 KDDC 302257
MTRP28
METAR KP28 302256Z AUTO 35014G22KT 21/00 A3017 RMK AO1 SLP213
T02060000





000
SAUS43 KDDC 302158
MTRP28
METAR KP28 302156Z AUTO 36013G23KT 23/00 A3015 RMK AO1 SLP207
T02280000





000
SAUS43 KDDC 302158
MTRP28
METAR KP28 302156Z AUTO 36013G23KT 23/00 A3015 RMK AO1 SLP207
T02280000





000
SAUS43 KDDC 302058
MTRP28
METAR KP28 302056Z AUTO 33012G23KT 23/01 A3015 RMK AO1 PK WND
34026/2036 SLP205 T02330006 56012





000
SAUS43 KDDC 301957
MTRP28
METAR KP28 301956Z AUTO 34016G24KT 23/01 A3015 RMK AO1 SLP204
T02330006





000
SAUS43 KDDC 301857
MTRP28
METAR KP28 301856Z AUTO 35014G23KT 23/02 A3017 RMK AO1 SLP209
T02280022





000
SAUS43 KDDC 301757
MTRP28
METAR KP28 301756Z AUTO 36013G21KT 21/02 A3019 RMK AO1 SLP216
T02110017 10222 20050 51011





000
SAUS43 KDDC 301657
MTRP28
METAR KP28 301656Z AUTO 36016G22KT 21/01 A3018 RMK AO1 PK WND
02026/1614 SLP217 T02060011





000
SAUS43 KDDC 301657
MTRP28
METAR KP28 301656Z AUTO 36016G22KT 21/01 A3018 RMK AO1 PK WND
02026/1614 SLP217 T02060011





000
SAUS43 KDDC 301558
MTRP28
METAR KP28 301556Z AUTO 36016G24KT 19/02 A3017 RMK AO1 PK WND
36026/1510 SLP212 T01890017





000
SAUS43 KDDC 301457
MTRP28
METAR KP28 301456Z AUTO 01016G23KT 15/02 A3015 RMK AO1 SLP207
T01500017 53021





000
SAUS43 KDDC 301400
MTRP28
METAR KP28 301356Z AUTO 32005KT 09/03 A3013 RMK AO1 SLP204 T00890028





000
SAUS43 KDDC 301300
MTRP28
METAR KP28 301256Z AUTO 33004KT 06/02 A3010 RMK AO1 SLP193 T00560017





000
SAUS43 KDDC 301200
MTRP28
METAR KP28 301156Z AUTO 34004KT 06/01 A3009 RMK AO1 SLP188 T00560006
10111 20028 53009





000
SAUS43 KDDC 301100
MTRP28
METAR KP28 301056Z AUTO 21005KT 08/01 A3006 RMK AO1 SLP175 T00830006





000
SAUS43 KDDC 301100
MTRP28
METAR KP28 301056Z AUTO 21005KT 08/01 A3006 RMK AO1 SLP175 T00830006





000
SAUS43 KDDC 301000
MTRP28
METAR KP28 300956Z AUTO 00000KT 07/02 A3005 RMK AO1 SLP173 T00670017





000
SAUS43 KDDC 300900
MTRP28
METAR KP28 300856Z AUTO 00000KT 06/01 A3006 RMK AO1 SLP175 T00560006
55001





000
SAUS43 KDDC 300800
MTRP28
METAR KP28 300756Z AUTO 00000KT 09/00 A3006 RMK AO1 SLP172 T00940000





000
SAUS43 KDDC 300700
MTRP28
METAR KP28 300656Z AUTO 16003KT 11/01 A3006 RMK AO1 SLP173 T01110006





000
SAUS43 KDDC 300600
MTRP28
METAR KP28 300556Z AUTO 18004KT 11/01 A3006 RMK AO1 SLP175 T01060006
10178 20089 402280017 58003





000
SAUS43 KDDC 300500
MTRP28
METAR KP28 300456Z AUTO 00000KT 09/01 A3007 RMK AO1 SLP181 T00890006





000
SAUS43 KDDC 300400
MTRP28
METAR KP28 300356Z AUTO 17005KT 11/01 A3007 RMK AO1 SLP181 T01110006





000
SAUS43 KDDC 300300
MTRP28
METAR KP28 300256Z AUTO 17006KT 12/00 A3007 RMK AO1 SLP183 T01220000
58000





000
SAUS43 KDDC 300200
MTRP28
METAR KP28 300156Z AUTO 17006KT 14/M01 A3008 RMK AO1 SLP189
T01441006





000
SAUS43 KDDC 300100
MTRP28
METAR KP28 300056Z AUTO 16008KT 16/M01 A3008 RMK AO1 SLP187
T01611011





000
SAUS43 KDDC 300000
MTRP28
METAR KP28 292356Z AUTO 17007KT 18/M02 A3008 RMK AO1 SLP186
T01781022 10228 20178 55008





000
SAUS43 KDDC 292300
MTRP28
METAR KP28 292256Z AUTO 18011KT 21/M03 A3007 RMK AO1 SLP183
T02111033





000
SAUS43 KDDC 292200
MTRP28
METAR KP28 292156Z AUTO 19013KT 22/M02 A3009 RMK AO1 SLP186
T02221022





000
SAUS43 KDDC 292100
MTRP28
METAR KP28 292056Z AUTO 19009G17KT 23/00 A3010 RMK AO1 SLP191
T02280000 56033





000
SAUS43 KDDC 292000
MTRP28
METAR KP28 291956Z AUTO 18012KT 22/00 A3013 RMK AO1 SLP200 T02170000





000
SAUS43 KDDC 291900
MTRP28
METAR KP28 291856Z AUTO 20010G19KT 21/00 A3017 RMK AO1 SLP213
T02110000





000
SAUS43 KDDC 291800
MTRP28
METAR KP28 291756Z AUTO 21010KT 20/00 A3020 RMK AO1 SLP226 T02000000
10200 20017 58014





000
SAUS43 KDDC 291700
MTRP28
METAR KP28 291656Z AUTO 19006KT 17/02 A3022 RMK AO1 SLP234 T01670017





000
SAUS43 KDDC 291600
MTRP28
METAR KP28 291556Z AUTO 00000KT 15/01 A3023 RMK AO1 SLP238 T01500006





000
SAUS43 KDDC 291500
MTRP28
METAR KP28 291456Z AUTO 00000KT 10/03 A3024 RMK AO1 SLP243 T01000028
51010





000
SAUS43 KDDC 291400
MTRP28
METAR KP28 291356Z AUTO 02004KT 03/01 A3024 RMK AO1 SLP243 T00330006





000
SAUS43 KDDC 291300
MTRP28
METAR KP28 291256Z AUTO 00000KT 02/00 A3022 RMK AO1 SLP238 T00220000





000
SAUS43 KDDC 291200
MTRP28
METAR KP28 291156Z AUTO 35003KT 02/00 A3021 RMK AO1 SLP233 T00170000
10050 20017 53002





000
SAUS43 KDDC 291100
MTRP28
METAR KP28 291056Z AUTO 36003KT 02/01 A3021 RMK AO1 SLP229 T00220006





000
SAUS43 KDDC 291000
MTRP28
METAR KP28 290956Z AUTO 01004KT 02/00 A3021 RMK AO1 SLP227 T00220000





000
SAUS43 KDDC 290900
MTRP28
METAR KP28 290856Z AUTO 33004KT 03/00 A3021 RMK AO1 SLP227 T00280000
53002





000
SAUS43 KDDC 290800
MTRP28
METAR KP28 290756Z AUTO 00000KT 04/01 A3020 RMK AO1 SLP227 T00390011





000
SAUS43 KDDC 290700
MTRP28
METAR KP28 290656Z AUTO 36003KT 04/01 A3020 RMK AO1 SLP226 T00440011





000
SAUS43 KDDC 290600
MTRP28
METAR KP28 290556Z AUTO 33004KT 04/01 A3020 RMK AO1 SLP227 T00390006
10178 20039 402170028 51006





000
SAUS43 KDDC 290500
MTRP28
METAR KP28 290456Z AUTO 00000KT 08/01 A3020 RMK AO1 SLP225 T00780011





000
SAUS43 KDDC 290400
MTRP28
METAR KP28 290356Z AUTO 01006KT 07/01 A3020 RMK AO1 SLP229 T00720011





000
SAUS43 KDDC 290400
MTRP28
METAR KP28 290356Z AUTO 01006KT 07/01 A3020 RMK AO1 SLP229 T00720011





000
SAUS43 KDDC 290300
MTRP28
METAR KP28 290256Z AUTO 00000KT 09/01 A3018 RMK AO1 SLP220 T00940006
51010





000
SAUS43 KDDC 290200
MTRP28
METAR KP28 290156Z AUTO 18006KT 13/01 A3016 RMK AO1 SLP216 T01330006





000
SAUS43 KDDC 290100
MTRP28
METAR KP28 290056Z AUTO 00000KT 13/M01 A3017 RMK AO1 SLP220
T01281006





000
SAUS43 KDDC 290000
MTRP28
METAR KP28 282356Z AUTO 00000KT 18/M03 A3015 RMK AO1 SLP209
T01781028 10217 20167 53008





    US Dept of Commerce
    National Oceanic and Atmospheric Administration
    National Weather Service
    1325 East West Highway
    Silver Spring, MD 20910
    Page Author: NWS Internet Services Team
Disclaimer
Information Quality
Credits
Glossary
Privacy Policy
Freedom of Information Act (FOIA)
About Us
Career Opportunities